createdAt,value
2022-10-18T00:00:04.789Z,66.45
2022-10-18T00:02:33.566Z,61.30
2022-10-18T00:05:03.641Z,68.20
2022-10-18T00:07:33.318Z,69.90
2022-10-18T00:10:02.863Z,71.02
2022-10-18T00:12:34.988Z,74.80
2022-10-18T00:15:06.117Z,72.47
2022-10-18T00:17:36.761Z,71.72
2022-10-18T00:20:07.484Z,59.35
2022-10-18T00:22:38.567Z,65.37
2022-10-18T00:25:09.109Z,62.95
2022-10-18T00:27:38.365Z,62.38
2022-10-18T00:30:08.598Z,73.37
2022-10-18T00:32:41.983Z,68.45
2022-10-18T00:35:11.339Z,67.67
2022-10-18T00:37:40.594Z,82.47
2022-10-18T00:40:10.951Z,69.15
2022-10-18T00:42:40.321Z,73.70
2022-10-18T00:45:18.635Z,69.05
2022-10-18T00:47:52.043Z,61.13
2022-10-18T00:50:22.135Z,72.65
2022-10-18T00:52:54.633Z,71.35
2022-10-18T00:55:24.164Z,63.38
2022-10-18T01:00:23.409Z,64.05
2022-10-18T01:02:53.241Z,60.15
2022-10-18T01:05:22.568Z,68.20
2022-10-18T01:08:01.090Z,75.52
2022-10-18T01:10:42.492Z,70.35
2022-10-18T01:13:26.798Z,75.85
2022-10-18T01:15:59.378Z,70.17
2022-10-18T01:21:19.892Z,72.15
2022-10-18T01:24:21.305Z,131.32
2022-10-18T01:27:08.878Z,78.70
2022-10-18T01:29:47.243Z,546.33
2022-10-18T01:32:31.848Z,54.20
2022-10-18T01:35:04.115Z,111.47
2022-10-18T01:37:34.556Z,63.15
2022-10-18T01:40:06.671Z,57.40
2022-10-18T01:42:36.466Z,73.05
2022-10-18T01:45:07.891Z,73.20
2022-10-18T01:47:37.661Z,72.20
2022-10-18T01:50:08.200Z,64.92
2022-10-18T01:52:39.155Z,67.55
2022-10-18T01:55:09.027Z,72.08
2022-10-18T01:57:53.379Z,72.62
2022-10-18T02:00:27.868Z,65.65
2022-10-18T02:03:15.640Z,67.62
2022-10-18T02:06:04.755Z,69.47
2022-10-18T02:08:56.870Z,75.90
2022-10-18T02:11:27.517Z,81.87
2022-10-18T02:13:59.939Z,80.53
2022-10-18T02:16:44.329Z,81.37
2022-10-18T02:19:22.115Z,84.95
2022-10-18T02:21:52.791Z,87.92
2022-10-18T02:24:22.886Z,91.47
2022-10-18T02:26:52.140Z,96.12
2022-10-18T02:29:21.539Z,82.55
2022-10-18T02:31:54.288Z,83.20
2022-10-18T02:34:32.022Z,71.57
2022-10-18T02:37:02.725Z,69.32
2022-10-18T02:39:35.310Z,65.50
2022-10-18T02:44:36.240Z,58.52
2022-10-18T02:47:07.022Z,48.17
2022-10-18T02:49:36.474Z,48.35
2022-10-18T02:52:05.999Z,56.50
2022-10-18T02:54:35.241Z,61.53
2022-10-18T02:57:04.620Z,70.60
2022-10-18T02:59:33.920Z,55.43
2022-10-18T03:02:03.193Z,67.17
2022-10-18T03:04:32.634Z,66.90
2022-10-18T03:07:01.883Z,57.73
2022-10-18T03:09:31.270Z,76.00
2022-10-18T03:12:01.051Z,80.25
2022-10-18T03:14:30.435Z,84.00
2022-10-18T03:16:59.964Z,82.97
2022-10-18T03:19:29.251Z,81.70
2022-10-18T03:21:58.557Z,75.22
2022-10-18T03:24:27.801Z,66.15
2022-10-18T03:26:57.249Z,73.35
2022-10-18T03:29:26.678Z,71.17
2022-10-18T03:31:55.938Z,77.90
2022-10-18T03:34:25.160Z,72.58
2022-10-18T03:36:55.280Z,71.28
2022-10-18T03:39:24.578Z,75.75
2022-10-18T03:41:53.867Z,74.58
2022-10-18T03:44:23.178Z,91.17
2022-10-18T03:46:52.416Z,105.75
2022-10-18T03:49:21.730Z,89.45
2022-10-18T03:51:51.177Z,90.87
2022-10-18T03:54:20.706Z,107.97
2022-10-18T03:56:50.026Z,94.52
2022-10-18T03:59:19.536Z,104.67
2022-10-18T04:01:48.832Z,86.35
2022-10-18T04:04:18.205Z,112.10
2022-10-18T04:06:47.522Z,95.30
2022-10-18T04:09:16.925Z,87.17
2022-10-18T04:11:46.269Z,93.95
2022-10-18T04:14:15.877Z,99.00
2022-10-18T04:16:45.389Z,95.87
2022-10-18T04:19:15.053Z,95.55
2022-10-18T04:21:44.319Z,121.75
2022-10-18T04:24:13.825Z,125.58
2022-10-18T04:26:43.128Z,115.90
2022-10-18T04:29:12.443Z,103.10
2022-10-18T04:31:41.862Z,122.67
2022-10-18T04:34:11.920Z,119.82
2022-10-18T04:36:41.365Z,105.40
2022-10-18T04:39:10.741Z,114.88
2022-10-18T04:41:40.215Z,99.40
2022-10-18T04:44:09.560Z,189.30
2022-10-18T04:46:38.810Z,189.95
2022-10-18T04:49:08.159Z,87.02
2022-10-18T04:51:38.180Z,316.05
2022-10-18T04:54:07.405Z,217.28
2022-10-18T04:56:36.667Z,245.90
2022-10-18T04:59:06.033Z,142.40
2022-10-18T05:01:35.460Z,96.28
2022-10-18T05:04:04.950Z,104.47
2022-10-18T05:06:34.397Z,103.30
2022-10-18T05:09:03.641Z,103.40
2022-10-18T05:11:33.014Z,98.97
2022-10-18T05:14:02.388Z,117.97
2022-10-18T05:16:32.485Z,108.37
2022-10-18T05:19:02.075Z,115.52
2022-10-18T05:21:31.321Z,123.18
2022-10-18T05:24:00.673Z,108.67
2022-10-18T05:26:29.957Z,108.10
2022-10-18T05:28:59.591Z,106.55
2022-10-18T05:31:29.217Z,80.15
2022-10-18T05:33:58.832Z,87.08
2022-10-18T05:36:28.667Z,90.20
2022-10-18T05:39:00.956Z,93.47
2022-10-18T05:41:29.126Z,100.30
2022-10-18T05:43:58.474Z,102.62
2022-10-18T05:46:27.934Z,93.70
2022-10-18T05:48:57.329Z,82.97
2022-10-18T05:51:26.659Z,102.82
2022-10-18T05:53:56.082Z,84.22
2022-10-18T05:56:25.512Z,88.55
2022-10-18T05:58:54.809Z,95.70
2022-10-18T06:01:24.355Z,88.97
2022-10-18T06:03:53.596Z,85.83
2022-10-18T06:06:22.891Z,88.30
2022-10-18T06:08:52.229Z,83.35
2022-10-18T06:11:21.987Z,80.25
2022-10-18T06:13:52.875Z,82.62
2022-10-18T06:16:23.204Z,68.07
2022-10-18T06:18:55.226Z,80.50
2022-10-18T06:21:25.572Z,75.67
2022-10-18T06:23:57.368Z,66.80
2022-10-18T06:26:28.063Z,64.17
2022-10-18T06:28:57.529Z,51.68
2022-10-18T06:31:26.794Z,34.03
2022-10-18T06:33:58.320Z,37.60
2022-10-18T06:36:27.930Z,54.98
2022-10-18T06:38:57.778Z,122.92
2022-10-18T06:41:27.177Z,72.62
2022-10-18T06:43:58.629Z,52.53
2022-10-18T06:46:28.047Z,118.95
2022-10-18T06:48:57.626Z,222.67
2022-10-18T06:51:26.887Z,227.60
2022-10-18T06:54:13.307Z,154.20
2022-10-18T06:56:27.208Z,123.33
2022-10-18T06:58:56.542Z,305.67
2022-10-18T07:01:26.039Z,257.40
2022-10-18T07:03:56.161Z,179.78
2022-10-18T07:06:26.291Z,286.67
2022-10-18T07:08:55.606Z,133.67
2022-10-18T07:11:26.244Z,110.78
2022-10-18T07:13:59.956Z,165.35
2022-10-18T07:16:29.478Z,158.32
2022-10-18T07:18:58.894Z,127.85
2022-10-18T07:21:28.670Z,73.12
2022-10-18T07:23:58.282Z,61.77
2022-10-18T07:26:33.249Z,79.35
2022-10-18T07:29:08.756Z,77.25
2022-10-18T07:31:41.849Z,54.03
2022-10-18T07:34:13.195Z,37.75
2022-10-18T07:36:42.956Z,36.33
2022-10-18T07:39:12.200Z,40.20
2022-10-18T07:41:41.436Z,43.55
2022-10-18T07:44:11.010Z,48.73
2022-10-18T07:46:40.256Z,42.53
2022-10-18T07:49:09.629Z,44.35
2022-10-18T07:51:39.060Z,40.95
2022-10-18T07:54:09.337Z,43.48
2022-10-18T07:56:38.572Z,42.53
2022-10-18T07:59:07.836Z,43.42
2022-10-18T08:01:37.161Z,50.73
2022-10-18T08:04:08.440Z,49.67
2022-10-18T08:06:37.727Z,40.73
2022-10-18T08:09:07.246Z,45.80
2022-10-18T08:11:36.515Z,36.77
2022-10-18T08:14:05.909Z,36.63
2022-10-18T08:16:35.213Z,36.38
2022-10-18T08:19:04.555Z,40.08
2022-10-18T08:21:33.866Z,33.05
2022-10-18T08:24:03.329Z,33.60
2022-10-18T08:26:32.606Z,36.23
2022-10-18T08:31:33.099Z,24.25
2022-10-18T08:34:02.456Z,18.52
2022-10-18T08:36:32.023Z,13.55
2022-10-18T08:39:02.826Z,12.10
2022-10-18T08:41:41.131Z,12.33
2022-10-18T08:44:22.027Z,11.70
2022-10-18T08:47:04.030Z,9.33
2022-10-18T08:49:40.856Z,12.15
2022-10-18T08:52:22.111Z,10.28
2022-10-18T08:55:11.332Z,11.70
2022-10-18T08:57:40.714Z,9.58
2022-10-18T09:00:19.146Z,12.53
2022-10-18T09:03:06.371Z,9.43
2022-10-18T09:05:53.181Z,9.90
2022-10-18T09:08:34.690Z,9.98
2022-10-18T09:11:13.216Z,12.15
2022-10-18T09:13:48.402Z,7.55
2022-10-18T09:16:22.735Z,11.53
2022-10-18T09:19:02.647Z,8.33
2022-10-18T09:21:55.497Z,8.10
2022-10-18T09:24:40.075Z,7.65
2022-10-18T09:27:19.979Z,9.50
2022-10-18T09:30:01.403Z,8.85
2022-10-18T09:32:49.301Z,7.75
2022-10-18T09:35:24.467Z,9.15
2022-10-18T09:37:57.018Z,8.08
2022-10-18T09:40:28.906Z,6.15
2022-10-18T09:43:13.233Z,8.40
2022-10-18T09:45:45.626Z,8.58
2022-10-18T09:48:21.130Z,9.40
2022-10-18T09:50:58.885Z,6.30
2022-10-18T09:53:46.382Z,7.03
2022-10-18T09:56:21.839Z,9.28
2022-10-18T09:58:52.132Z,5.58
2022-10-18T10:01:24.737Z,6.37
2022-10-18T10:03:54.524Z,5.55
2022-10-18T10:06:32.487Z,5.80
2022-10-18T10:09:10.589Z,7.83
2022-10-18T10:11:44.384Z,5.65
2022-10-18T10:14:27.958Z,6.53
2022-10-18T10:17:02.316Z,6.50
2022-10-18T10:19:40.831Z,7.25
2022-10-18T10:22:11.977Z,8.90
2022-10-18T10:24:49.555Z,8.78
2022-10-18T10:27:24.945Z,7.03
2022-10-18T10:29:58.180Z,8.13
2022-10-18T10:32:31.501Z,7.83
2022-10-18T10:35:00.957Z,7.40
2022-10-18T10:37:36.422Z,5.17
2022-10-18T10:40:19.837Z,6.12
2022-10-18T10:43:08.810Z,7.05
2022-10-18T10:45:32.759Z,5.60
2022-10-18T10:48:08.427Z,6.08
2022-10-18T10:50:53.112Z,7.05
2022-10-18T10:53:33.588Z,4.40
2022-10-18T10:56:03.317Z,6.00
2022-10-18T10:58:38.462Z,5.92
2022-10-18T11:01:27.621Z,8.48
2022-10-18T11:04:00.337Z,6.05
2022-10-18T11:06:41.932Z,5.20
2022-10-18T11:09:31.260Z,5.83
2022-10-18T11:12:03.750Z,6.03
2022-10-18T11:14:36.176Z,5.03
2022-10-18T11:17:42.653Z,6.05
2022-10-18T11:20:15.384Z,5.87
2022-10-18T11:22:56.944Z,8.93
2022-10-18T11:25:29.463Z,7.53
2022-10-18T11:28:05.451Z,5.35
2022-10-18T11:30:50.109Z,8.78
2022-10-18T11:33:38.308Z,8.48
2022-10-18T11:36:05.546Z,9.43
2022-10-18T11:38:40.678Z,7.78
2022-10-18T11:41:33.271Z,5.45
2022-10-18T11:44:04.991Z,6.58
2022-10-18T11:46:37.559Z,8.23
2022-10-18T11:49:26.643Z,7.30
2022-10-18T11:52:17.340Z,9.00
2022-10-18T11:54:52.557Z,6.78
2022-10-18T11:57:34.303Z,7.35
2022-10-18T12:00:16.632Z,8.93
2022-10-18T12:03:08.403Z,16.20
2022-10-18T12:05:39.845Z,6.70
2022-10-18T12:08:12.226Z,6.72
2022-10-18T12:10:46.803Z,12.37
2022-10-18T12:13:21.980Z,10.13
2022-10-18T12:15:52.366Z,9.80
2022-10-18T12:18:24.285Z,7.80
2022-10-18T12:20:56.903Z,12.90
2022-10-18T12:23:32.399Z,10.25
2022-10-18T12:26:07.344Z,11.25
2022-10-18T12:28:51.718Z,9.33
2022-10-18T12:31:31.118Z,9.20
2022-10-18T12:34:03.814Z,10.38
2022-10-18T12:36:56.057Z,8.68
2022-10-18T12:39:38.747Z,14.00
2022-10-18T12:41:59.765Z,11.65
2022-10-18T12:44:34.210Z,10.45
2022-10-18T12:47:05.722Z,9.90
2022-10-18T12:49:40.274Z,8.03
2022-10-18T12:52:21.394Z,9.33
2022-10-18T12:55:12.822Z,11.28
2022-10-18T12:57:57.745Z,9.50
2022-10-18T13:00:36.196Z,9.43
2022-10-18T13:03:19.313Z,7.90
2022-10-18T13:05:53.903Z,12.07
2022-10-18T13:08:37.144Z,11.57
2022-10-18T13:11:12.904Z,10.88
2022-10-18T13:14:11.247Z,11.97
2022-10-18T13:16:54.206Z,11.35
2022-10-18T13:19:29.440Z,9.48
2022-10-18T13:22:23.460Z,8.88
2022-10-18T13:25:00.563Z,8.05
2022-10-18T13:27:39.010Z,9.73
2022-10-18T13:30:32.587Z,12.63
2022-10-18T13:33:30.965Z,9.75
2022-10-18T13:36:12.874Z,9.23
2022-10-18T13:38:47.778Z,10.60
2022-10-18T13:41:19.995Z,10.30
2022-10-18T13:44:07.487Z,11.35
2022-10-18T13:46:45.545Z,9.60
2022-10-18T13:49:24.276Z,8.30
2022-10-18T13:52:16.414Z,13.90
2022-10-18T13:54:57.952Z,9.18
2022-10-18T13:57:36.579Z,10.88
2022-10-18T14:00:26.999Z,6.62
2022-10-18T14:03:51.509Z,12.68
2022-10-18T14:06:11.630Z,9.33
2022-10-18T14:08:59.038Z,10.90
2022-10-18T14:11:46.155Z,9.53
2022-10-18T14:14:17.896Z,10.28
2022-10-18T14:19:37.537Z,10.05
2022-10-18T14:22:27.749Z,12.03
2022-10-18T14:24:59.118Z,8.18
2022-10-18T14:27:32.533Z,9.83
2022-10-18T14:30:17.290Z,12.00
2022-10-18T14:32:48.937Z,10.78
2022-10-18T14:35:37.368Z,7.97
2022-10-18T14:37:54.737Z,9.73
2022-10-18T14:40:39.047Z,9.78
2022-10-18T14:43:12.051Z,9.53
2022-10-18T14:45:42.602Z,6.72
2022-10-18T14:48:20.833Z,12.90
2022-10-18T14:50:54.982Z,6.15
2022-10-18T14:53:25.164Z,8.18
2022-10-18T14:56:00.939Z,9.08
2022-10-18T14:58:30.654Z,9.40
2022-10-18T15:01:00.483Z,7.42
2022-10-18T15:03:32.983Z,10.20
2022-10-18T15:06:05.188Z,6.87
2022-10-18T15:08:42.302Z,10.50
2022-10-18T15:11:14.583Z,6.25
2022-10-18T15:17:31.387Z,7.83
2022-10-18T15:20:06.199Z,7.35
2022-10-18T15:22:35.786Z,6.30
2022-10-18T15:25:15.118Z,6.62
2022-10-18T15:27:47.165Z,7.70
2022-10-18T15:30:22.667Z,11.48
2022-10-18T15:32:55.045Z,5.42
2022-10-18T15:35:27.591Z,9.50
2022-10-18T15:40:35.181Z,10.60
2022-10-18T15:43:07.375Z,7.28
2022-10-18T15:45:39.399Z,9.13
2022-10-18T15:48:13.581Z,10.00
2022-10-18T15:50:45.346Z,7.92
2022-10-18T15:53:34.798Z,8.97
2022-10-18T15:56:32.236Z,15.45
2022-10-18T15:59:04.959Z,6.53
2022-10-18T16:01:38.117Z,7.60
2022-10-18T16:04:13.546Z,10.93
2022-10-18T16:06:42.992Z,7.87
2022-10-18T16:09:17.800Z,6.58
2022-10-18T16:11:52.825Z,9.05
2022-10-18T16:14:21.460Z,5.78
2022-10-18T16:16:53.318Z,12.00
2022-10-18T16:19:22.990Z,7.12
2022-10-18T16:21:53.889Z,10.40
2022-10-18T16:24:23.613Z,6.33
2022-10-18T16:26:54.079Z,5.53
2022-10-18T16:29:29.236Z,9.08
2022-10-18T16:31:58.704Z,8.03
2022-10-18T16:34:28.562Z,6.55
2022-10-18T16:36:57.853Z,8.45
2022-10-18T16:39:28.441Z,7.97
2022-10-18T16:41:57.867Z,6.58
2022-10-18T16:44:27.408Z,7.70
2022-10-18T16:46:56.660Z,10.10
2022-10-18T16:49:27.131Z,11.25
2022-10-18T16:51:56.641Z,8.43
2022-10-18T16:54:26.018Z,8.68
2022-10-18T16:56:55.378Z,7.92
2022-10-18T16:59:30.201Z,8.40
2022-10-18T17:02:01.130Z,8.48
2022-10-18T17:04:30.410Z,8.98
2022-10-18T17:06:59.884Z,8.93
2022-10-18T17:09:29.256Z,6.25
2022-10-18T17:11:58.742Z,6.87
2022-10-18T17:14:28.079Z,7.47
2022-10-18T17:16:57.645Z,6.50
2022-10-18T17:19:26.920Z,8.65
2022-10-18T17:22:01.565Z,4.25
2022-10-18T17:24:27.207Z,6.25
2022-10-18T17:26:56.688Z,9.28
2022-10-18T17:29:26.106Z,8.73
2022-10-18T17:31:55.398Z,7.42
2022-10-18T17:34:24.748Z,8.93
2022-10-18T17:36:54.514Z,6.55
2022-10-18T17:39:27.246Z,14.43
2022-10-18T17:41:56.551Z,7.92
2022-10-18T17:44:26.004Z,10.25
2022-10-18T17:46:55.360Z,10.15
2022-10-18T17:49:24.791Z,9.10
2022-10-18T17:51:54.087Z,10.98
2022-10-18T17:54:23.611Z,13.20
2022-10-18T17:56:53.859Z,10.93
2022-10-18T17:59:24.035Z,12.78
2022-10-18T18:01:54.012Z,9.33
2022-10-18T18:04:24.262Z,10.20
2022-10-18T18:06:53.808Z,9.60
2022-10-18T18:09:23.081Z,13.83
2022-10-18T18:11:53.728Z,9.63
2022-10-18T18:14:22.979Z,11.03
2022-10-18T18:16:52.309Z,11.18
2022-10-18T18:19:22.203Z,12.68
2022-10-18T18:21:53.469Z,10.55
2022-10-18T18:24:24.738Z,12.85
2022-10-18T18:26:55.304Z,12.53
2022-10-18T18:29:25.901Z,12.07
2022-10-18T18:31:55.570Z,9.93
2022-10-18T18:34:25.099Z,10.28
2022-10-18T18:36:54.902Z,15.83
2022-10-18T18:39:26.262Z,8.93
2022-10-18T18:41:55.633Z,12.10
2022-10-18T18:44:25.237Z,7.95
2022-10-18T18:46:54.928Z,15.55
2022-10-18T18:49:24.399Z,17.17
2022-10-18T18:51:54.418Z,18.12
2022-10-18T18:54:24.949Z,12.78
2022-10-18T18:56:54.355Z,9.40
2022-10-18T18:59:23.613Z,12.53
2022-10-18T19:01:53.289Z,12.25
2022-10-18T19:04:22.651Z,12.93
2022-10-18T19:06:52.174Z,13.08
2022-10-18T19:09:26.175Z,13.72
2022-10-18T19:11:56.945Z,17.37
2022-10-18T19:14:26.562Z,14.58
2022-10-18T19:16:59.742Z,9.85
2022-10-18T19:19:30.913Z,12.73
2022-10-18T19:22:01.990Z,13.68
2022-10-18T19:24:32.346Z,17.23
2022-10-18T19:27:04.982Z,12.47
2022-10-18T19:32:07.528Z,9.65
2022-10-18T19:34:37.182Z,11.68
2022-10-18T19:37:06.772Z,12.18
2022-10-18T19:39:36.642Z,7.40
2022-10-18T19:42:10.605Z,14.53
2022-10-18T19:44:41.128Z,16.12
2022-10-18T19:47:12.552Z,15.88
2022-10-18T19:49:43.519Z,14.45
2022-10-18T19:52:13.150Z,16.52
2022-10-18T19:54:42.798Z,15.20
2022-10-18T19:57:12.210Z,17.77
2022-10-18T20:02:18.083Z,16.23
2022-10-18T20:04:47.534Z,15.05
2022-10-18T20:07:17.027Z,13.72
2022-10-18T20:09:48.022Z,20.80
2022-10-18T20:12:17.471Z,18.82
2022-10-18T20:14:47.123Z,18.55
2022-10-18T20:17:16.789Z,14.70
2022-10-18T20:19:46.145Z,17.90
2022-10-18T20:22:15.628Z,15.18
2022-10-18T20:24:45.021Z,16.97
2022-10-18T20:27:14.561Z,18.62
2022-10-18T20:29:43.899Z,19.45
2022-10-18T20:32:13.191Z,17.48
2022-10-18T20:34:42.596Z,20.20
2022-10-18T20:37:11.914Z,20.90
2022-10-18T20:39:41.255Z,19.37
2022-10-18T20:42:10.545Z,22.55
2022-10-18T20:44:41.457Z,20.10
2022-10-18T20:47:11.081Z,21.62
2022-10-18T20:49:40.586Z,24.77
2022-10-18T20:52:10.159Z,24.72
2022-10-18T20:54:39.601Z,24.47
2022-10-18T20:57:09.211Z,26.77
2022-10-18T20:59:38.741Z,27.87
2022-10-18T21:02:08.517Z,21.42
2022-10-18T21:04:40.085Z,20.85
2022-10-18T21:07:09.090Z,24.32
2022-10-18T21:09:38.530Z,20.23
2022-10-18T21:12:08.068Z,18.25
2022-10-18T21:14:37.749Z,18.98
2022-10-18T21:17:07.280Z,25.20
2022-10-18T21:19:37.030Z,27.40
2022-10-18T21:22:06.533Z,21.60
2022-10-18T21:24:36.177Z,25.30
2022-10-18T21:27:05.512Z,23.18
2022-10-18T21:29:35.469Z,28.15
2022-10-18T21:32:04.907Z,26.07
2022-10-18T21:34:34.341Z,22.32
2022-10-18T21:37:03.663Z,33.28
2022-10-18T21:39:32.951Z,26.12
2022-10-18T21:42:02.260Z,19.23
2022-10-18T21:44:31.887Z,21.57
2022-10-18T21:47:01.473Z,22.35
2022-10-18T21:49:32.644Z,26.52
2022-10-18T21:52:06.669Z,18.48
2022-10-18T21:54:36.105Z,27.15
2022-10-18T21:57:05.692Z,25.82
2022-10-18T21:59:34.936Z,19.05
2022-10-18T22:02:04.891Z,19.42
2022-10-18T22:04:35.851Z,22.30
2022-10-18T22:07:05.537Z,24.90
2022-10-18T22:09:36.549Z,32.55
2022-10-18T22:12:06.776Z,35.78
2022-10-18T22:14:38.417Z,36.95
2022-10-18T22:17:07.920Z,29.18
2022-10-18T22:19:37.550Z,18.07
2022-10-18T22:22:07.017Z,19.35
2022-10-18T22:27:05.900Z,19.75
2022-10-18T22:29:35.540Z,25.92
2022-10-18T22:32:05.050Z,22.02
2022-10-18T22:34:34.311Z,30.52
2022-10-18T22:37:03.628Z,24.80
2022-10-18T22:39:33.192Z,25.40
2022-10-18T22:42:02.785Z,23.80
2022-10-18T22:44:32.131Z,27.37
2022-10-18T22:47:01.728Z,31.82
2022-10-18T22:49:33.603Z,18.35
2022-10-18T22:52:03.069Z,17.57
2022-10-18T22:54:32.603Z,22.55
2022-10-18T22:57:01.992Z,18.42
2022-10-18T22:59:31.275Z,22.45
2022-10-18T23:02:00.878Z,21.02
2022-10-18T23:04:30.131Z,25.20
2022-10-18T23:06:59.467Z,25.85
2022-10-18T23:09:28.920Z,33.02
2022-10-18T23:11:58.331Z,26.87
2022-10-18T23:14:27.775Z,27.67
2022-10-18T23:16:57.216Z,18.50
2022-10-18T23:19:26.476Z,28.15
2022-10-18T23:21:55.862Z,22.73
2022-10-18T23:24:25.478Z,25.30
2022-10-18T23:26:54.847Z,21.37
2022-10-18T23:29:24.557Z,21.37
2022-10-18T23:31:53.935Z,17.17
2022-10-18T23:34:23.581Z,14.58
2022-10-18T23:36:53.019Z,17.87
2022-10-18T23:39:22.364Z,20.62
2022-10-18T23:41:51.790Z,19.67
2022-10-18T23:44:21.130Z,21.27
2022-10-18T23:46:50.501Z,21.42
2022-10-18T23:49:19.976Z,13.32
2022-10-18T23:51:49.243Z,20.17
2022-10-18T23:54:18.559Z,24.55
2022-10-18T23:56:48.206Z,29.60
2022-10-18T23:59:17.719Z,72.90
